sensor_id;sensor_type;location;lat;lon;timestamp;P1;durP1;ratioP1;P2;durP2;ratioP2
1977;SDS011;989;53.016;8.346;2023-03-13T00:02:02;30.43;;;6.60;;
1977;SDS011;989;53.016;8.346;2023-03-13T00:04:28;24.67;;;5.10;;
1977;SDS011;989;53.016;8.346;2023-03-13T00:06:54;44.83;;;6.73;;
1977;SDS011;989;53.016;8.346;2023-03-13T00:09:20;20.60;;;5.40;;
1977;SDS011;989;53.016;8.346;2023-03-13T00:11:47;28.33;;;5.20;;
1977;SDS011;989;53.016;8.346;2023-03-13T00:14:13;40.57;;;6.00;;
1977;SDS011;989;53.016;8.346;2023-03-13T00:16:39;17.20;;;6.00;;
1977;SDS011;989;53.016;8.346;2023-03-13T00:19:06;28.83;;;4.73;;
1977;SDS011;989;53.016;8.346;2023-03-13T00:21:32;43.70;;;6.50;;
1977;SDS011;989;53.016;8.346;2023-03-13T00:23:58;28.25;;;6.03;;
1977;SDS011;989;53.016;8.346;2023-03-13T00:26:25;41.90;;;6.47;;
1977;SDS011;989;53.016;8.346;2023-03-13T00:28:51;18.00;;;4.80;;
1977;SDS011;989;53.016;8.346;2023-03-13T00:31:21;35.87;;;6.80;;
1977;SDS011;989;53.016;8.346;2023-03-13T00:33:48;23.23;;;5.60;;
1977;SDS011;989;53.016;8.346;2023-03-13T00:36:34;20.30;;;6.20;;
1977;SDS011;989;53.016;8.346;2023-03-13T00:39:00;28.08;;;6.72;;
1977;SDS011;989;53.016;8.346;2023-03-13T00:41:27;36.40;;;6.60;;
1977;SDS011;989;53.016;8.346;2023-03-13T00:43:54;24.90;;;5.20;;
1977;SDS011;989;53.016;8.346;2023-03-13T00:46:22;23.55;;;5.65;;
1977;SDS011;989;53.016;8.346;2023-03-13T00:48:48;23.37;;;5.87;;
1977;SDS011;989;53.016;8.346;2023-03-13T00:51:15;29.65;;;6.13;;
1977;SDS011;989;53.016;8.346;2023-03-13T00:53:41;25.58;;;4.75;;
1977;SDS011;989;53.016;8.346;2023-03-13T00:56:16;31.60;;;5.43;;
1977;SDS011;989;53.016;8.346;2023-03-13T00:58:43;30.70;;;5.68;;
1977;SDS011;989;53.016;8.346;2023-03-13T01:01:14;19.93;;;4.73;;
1977;SDS011;989;53.016;8.346;2023-03-13T01:03:41;27.35;;;4.82;;
1977;SDS011;989;53.016;8.346;2023-03-13T01:06:09;22.65;;;5.22;;
1977;SDS011;989;53.016;8.346;2023-03-13T01:08:35;25.03;;;4.17;;
1977;SDS011;989;53.016;8.346;2023-03-13T01:11:11;28.83;;;6.47;;
1977;SDS011;989;53.016;8.346;2023-03-13T01:13:38;19.83;;;4.80;;
1977;SDS011;989;53.016;8.346;2023-03-13T01:16:08;30.20;;;4.50;;
1977;SDS011;989;53.016;8.346;2023-03-13T01:18:35;28.02;;;5.30;;
1977;SDS011;989;53.016;8.346;2023-03-13T01:21:02;45.70;;;6.90;;
1977;SDS011;989;53.016;8.346;2023-03-13T01:23:28;30.53;;;5.23;;
1977;SDS011;989;53.016;8.346;2023-03-13T01:25:54;14.63;;;3.40;;
1977;SDS011;989;53.016;8.346;2023-03-13T01:28:21;25.85;;;4.22;;
1977;SDS011;989;53.016;8.346;2023-03-13T01:30:47;14.17;;;4.87;;
1977;SDS011;989;53.016;8.346;2023-03-13T01:33:13;21.33;;;4.03;;
1977;SDS011;989;53.016;8.346;2023-03-13T01:35:39;33.20;;;6.93;;
1977;SDS011;989;53.016;8.346;2023-03-13T01:38:05;16.25;;;3.85;;
1977;SDS011;989;53.016;8.346;2023-03-13T01:40:37;31.92;;;4.95;;
1977;SDS011;989;53.016;8.346;2023-03-13T01:43:11;26.42;;;3.95;;
1977;SDS011;989;53.016;8.346;2023-03-13T01:48:28;25.53;;;4.10;;
1977;SDS011;989;53.016;8.346;2023-03-13T01:50:56;19.40;;;4.20;;
1977;SDS011;989;53.016;8.346;2023-03-13T01:53:24;26.48;;;4.93;;
1977;SDS011;989;53.016;8.346;2023-03-13T01:55:50;19.17;;;3.83;;
1977;SDS011;989;53.016;8.346;2023-03-13T01:58:16;16.35;;;4.03;;
1977;SDS011;989;53.016;8.346;2023-03-13T02:00:42;29.07;;;4.87;;
1977;SDS011;989;53.016;8.346;2023-03-13T02:03:12;18.42;;;4.45;;
1977;SDS011;989;53.016;8.346;2023-03-13T02:05:39;22.73;;;3.38;;
1977;SDS011;989;53.016;8.346;2023-03-13T02:08:07;13.05;;;3.80;;
1977;SDS011;989;53.016;8.346;2023-03-13T02:10:36;19.50;;;4.20;;
1977;SDS011;989;53.016;8.346;2023-03-13T02:13:04;16.37;;;3.63;;
1977;SDS011;989;53.016;8.346;2023-03-13T02:15:30;17.43;;;3.67;;
1977;SDS011;989;53.016;8.346;2023-03-13T02:17:56;22.83;;;4.50;;
1977;SDS011;989;53.016;8.346;2023-03-13T02:20:22;14.48;;;3.58;;
1977;SDS011;989;53.016;8.346;2023-03-13T02:22:59;30.48;;;5.90;;
1977;SDS011;989;53.016;8.346;2023-03-13T02:25:44;13.30;;;5.00;;
1977;SDS011;989;53.016;8.346;2023-03-13T02:28:21;21.37;;;5.50;;
1977;SDS011;989;53.016;8.346;2023-03-13T02:30:48;27.15;;;4.65;;
1977;SDS011;989;53.016;8.346;2023-03-13T02:33:15;20.00;;;4.20;;
1977;SDS011;989;53.016;8.346;2023-03-13T02:35:43;29.73;;;4.55;;
1977;SDS011;989;53.016;8.346;2023-03-13T02:38:10;17.88;;;3.58;;
1977;SDS011;989;53.016;8.346;2023-03-13T02:40:38;29.27;;;4.85;;
1977;SDS011;989;53.016;8.346;2023-03-13T02:43:10;16.00;;;3.28;;
1977;SDS011;989;53.016;8.346;2023-03-13T02:45:37;16.65;;;3.10;;
1977;SDS011;989;53.016;8.346;2023-03-13T02:48:03;35.13;;;4.47;;
1977;SDS011;989;53.016;8.346;2023-03-13T02:50:29;16.17;;;3.60;;
1977;SDS011;989;53.016;8.346;2023-03-13T02:53:00;22.23;;;4.90;;
1977;SDS011;989;53.016;8.346;2023-03-13T02:55:31;27.93;;;4.83;;
1977;SDS011;989;53.016;8.346;2023-03-13T02:58:00;18.73;;;3.73;;
1977;SDS011;989;53.016;8.346;2023-03-13T03:00:26;30.83;;;6.70;;
1977;SDS011;989;53.016;8.346;2023-03-13T03:02:53;16.48;;;3.70;;
1977;SDS011;989;53.016;8.346;2023-03-13T03:05:19;23.65;;;5.80;;
1977;SDS011;989;53.016;8.346;2023-03-13T03:07:46;18.90;;;4.33;;
1977;SDS011;989;53.016;8.346;2023-03-13T03:10:12;21.70;;;4.60;;
1977;SDS011;989;53.016;8.346;2023-03-13T03:12:39;18.80;;;4.25;;
1977;SDS011;989;53.016;8.346;2023-03-13T03:15:05;26.77;;;5.83;;
1977;SDS011;989;53.016;8.346;2023-03-13T03:17:31;13.93;;;4.37;;
1977;SDS011;989;53.016;8.346;2023-03-13T03:19:57;18.07;;;3.53;;
1977;SDS011;989;53.016;8.346;2023-03-13T03:22:23;17.13;;;4.23;;
1977;SDS011;989;53.016;8.346;2023-03-13T03:24:49;26.97;;;5.57;;
1977;SDS011;989;53.016;8.346;2023-03-13T03:27:15;18.17;;;4.43;;
1977;SDS011;989;53.016;8.346;2023-03-13T03:29:41;18.50;;;4.00;;
1977;SDS011;989;53.016;8.346;2023-03-13T03:32:07;20.77;;;5.37;;
1977;SDS011;989;53.016;8.346;2023-03-13T03:34:33;28.57;;;5.70;;
1977;SDS011;989;53.016;8.346;2023-03-13T03:36:58;24.80;;;5.00;;
1977;SDS011;989;53.016;8.346;2023-03-13T03:39:24;22.47;;;4.87;;
1977;SDS011;989;53.016;8.346;2023-03-13T03:41:50;23.90;;;6.47;;
1977;SDS011;989;53.016;8.346;2023-03-13T03:44:16;12.43;;;3.60;;
1977;SDS011;989;53.016;8.346;2023-03-13T03:46:42;15.77;;;6.47;;
1977;SDS011;989;53.016;8.346;2023-03-13T03:49:08;20.07;;;4.70;;
1977;SDS011;989;53.016;8.346;2023-03-13T03:51:34;17.97;;;5.57;;
1977;SDS011;989;53.016;8.346;2023-03-13T03:54:00;15.87;;;5.20;;
1977;SDS011;989;53.016;8.346;2023-03-13T03:56:26;42.37;;;5.40;;
1977;SDS011;989;53.016;8.346;2023-03-13T03:58:52;22.43;;;5.23;;
1977;SDS011;989;53.016;8.346;2023-03-13T04:01:18;10.73;;;4.70;;
1977;SDS011;989;53.016;8.346;2023-03-13T04:03:44;24.63;;;6.50;;
1977;SDS011;989;53.016;8.346;2023-03-13T04:06:10;16.53;;;5.13;;
1977;SDS011;989;53.016;8.346;2023-03-13T04:08:36;21.03;;;4.60;;
1977;SDS011;989;53.016;8.346;2023-03-13T04:11:02;10.40;;;4.80;;
1977;SDS011;989;53.016;8.346;2023-03-13T04:13:28;14.20;;;5.60;;
1977;SDS011;989;53.016;8.346;2023-03-13T04:15:54;27.13;;;5.87;;
1977;SDS011;989;53.016;8.346;2023-03-13T04:18:20;18.83;;;4.50;;
1977;SDS011;989;53.016;8.346;2023-03-13T04:20:46;25.60;;;5.57;;
1977;SDS011;989;53.016;8.346;2023-03-13T04:23:12;14.80;;;5.07;;
1977;SDS011;989;53.016;8.346;2023-03-13T04:25:37;20.73;;;4.70;;
1977;SDS011;989;53.016;8.346;2023-03-13T04:28:04;8.63;;;5.60;;
1977;SDS011;989;53.016;8.346;2023-03-13T04:30:30;13.53;;;6.70;;
1977;SDS011;989;53.016;8.346;2023-03-13T04:32:56;19.53;;;5.47;;
1977;SDS011;989;53.016;8.346;2023-03-13T04:35:21;10.70;;;4.60;;
1977;SDS011;989;53.016;8.346;2023-03-13T04:37:47;17.13;;;4.80;;
1977;SDS011;989;53.016;8.346;2023-03-13T04:40:13;19.60;;;5.13;;
1977;SDS011;989;53.016;8.346;2023-03-13T04:42:40;13.23;;;4.50;;
1977;SDS011;989;53.016;8.346;2023-03-13T04:45:07;11.97;;;4.87;;
1977;SDS011;989;53.016;8.346;2023-03-13T04:47:34;12.63;;;4.37;;
1977;SDS011;989;53.016;8.346;2023-03-13T04:50:00;9.20;;;4.20;;
1977;SDS011;989;53.016;8.346;2023-03-13T04:52:26;19.83;;;4.87;;
1977;SDS011;989;53.016;8.346;2023-03-13T04:54:52;9.07;;;5.43;;
1977;SDS011;989;53.016;8.346;2023-03-13T04:57:18;10.23;;;4.10;;
1977;SDS011;989;53.016;8.346;2023-03-13T04:59:44;12.17;;;5.97;;
1977;SDS011;989;53.016;8.346;2023-03-13T05:02:13;11.63;;;5.07;;
1977;SDS011;989;53.016;8.346;2023-03-13T05:04:39;10.77;;;5.40;;
1977;SDS011;989;53.016;8.346;2023-03-13T05:07:05;12.93;;;5.10;;
1977;SDS011;989;53.016;8.346;2023-03-13T05:09:31;8.77;;;4.30;;
1977;SDS011;989;53.016;8.346;2023-03-13T05:11:57;8.90;;;4.70;;
1977;SDS011;989;53.016;8.346;2023-03-13T05:14:23;7.93;;;4.43;;
1977;SDS011;989;53.016;8.346;2023-03-13T05:16:49;10.30;;;3.90;;
1977;SDS011;989;53.016;8.346;2023-03-13T05:19:15;6.07;;;3.97;;
1977;SDS011;989;53.016;8.346;2023-03-13T05:21:41;5.13;;;3.90;;
1977;SDS011;989;53.016;8.346;2023-03-13T05:24:07;6.20;;;4.37;;
1977;SDS011;989;53.016;8.346;2023-03-13T05:26:33;7.40;;;4.27;;
1977;SDS011;989;53.016;8.346;2023-03-13T05:28:58;8.97;;;5.20;;
1977;SDS011;989;53.016;8.346;2023-03-13T05:31:24;7.20;;;4.80;;
1977;SDS011;989;53.016;8.346;2023-03-13T05:33:50;6.13;;;4.43;;
1977;SDS011;989;53.016;8.346;2023-03-13T05:36:16;13.37;;;5.50;;
1977;SDS011;989;53.016;8.346;2023-03-13T05:38:42;8.07;;;5.37;;
1977;SDS011;989;53.016;8.346;2023-03-13T05:41:08;8.27;;;5.43;;
1977;SDS011;989;53.016;8.346;2023-03-13T05:43:34;9.53;;;5.27;;
1977;SDS011;989;53.016;8.346;2023-03-13T05:46:00;6.70;;;5.00;;
1977;SDS011;989;53.016;8.346;2023-03-13T05:48:26;6.30;;;4.70;;
1977;SDS011;989;53.016;8.346;2023-03-13T05:50:52;7.50;;;5.10;;
1977;SDS011;989;53.016;8.346;2023-03-13T05:53:18;7.63;;;5.40;;
1977;SDS011;989;53.016;8.346;2023-03-13T05:55:45;15.23;;;4.83;;
1977;SDS011;989;53.016;8.346;2023-03-13T05:58:11;13.57;;;5.23;;
1977;SDS011;989;53.016;8.346;2023-03-13T06:00:37;6.90;;;5.03;;
1977;SDS011;989;53.016;8.346;2023-03-13T06:03:02;10.23;;;6.00;;
1977;SDS011;989;53.016;8.346;2023-03-13T06:05:28;7.30;;;4.90;;
1977;SDS011;989;53.016;8.346;2023-03-13T06:07:54;15.33;;;7.00;;
1977;SDS011;989;53.016;8.346;2023-03-13T06:10:20;10.23;;;6.17;;
1977;SDS011;989;53.016;8.346;2023-03-13T06:12:53;6.43;;;4.60;;
1977;SDS011;989;53.016;8.346;2023-03-13T06:15:19;15.93;;;4.93;;
1977;SDS011;989;53.016;8.346;2023-03-13T06:17:45;8.70;;;6.57;;
1977;SDS011;989;53.016;8.346;2023-03-13T06:20:11;9.90;;;4.70;;
1977;SDS011;989;53.016;8.346;2023-03-13T06:22:37;8.63;;;4.83;;
1977;SDS011;989;53.016;8.346;2023-03-13T06:25:04;9.57;;;5.80;;
1977;SDS011;989;53.016;8.346;2023-03-13T06:27:30;8.67;;;5.80;;
1977;SDS011;989;53.016;8.346;2023-03-13T06:29:56;8.43;;;5.90;;
1977;SDS011;989;53.016;8.346;2023-03-13T06:32:22;6.00;;;4.10;;
1977;SDS011;989;53.016;8.346;2023-03-13T06:34:48;12.40;;;5.53;;
1977;SDS011;989;53.016;8.346;2023-03-13T06:37:14;7.40;;;4.43;;
1977;SDS011;989;53.016;8.346;2023-03-13T06:39:40;7.80;;;4.43;;
1977;SDS011;989;53.016;8.346;2023-03-13T06:42:06;9.53;;;5.63;;
1977;SDS011;989;53.016;8.346;2023-03-13T06:44:32;10.43;;;4.60;;
1977;SDS011;989;53.016;8.346;2023-03-13T06:46:58;6.80;;;3.90;;
1977;SDS011;989;53.016;8.346;2023-03-13T06:49:24;8.20;;;4.87;;
1977;SDS011;989;53.016;8.346;2023-03-13T06:51:50;14.73;;;4.40;;
1977;SDS011;989;53.016;8.346;2023-03-13T06:54:16;5.90;;;3.70;;
1977;SDS011;989;53.016;8.346;2023-03-13T06:56:42;6.90;;;4.30;;
1977;SDS011;989;53.016;8.346;2023-03-13T06:59:08;6.27;;;4.17;;
1977;SDS011;989;53.016;8.346;2023-03-13T07:01:34;4.10;;;3.63;;
1977;SDS011;989;53.016;8.346;2023-03-13T07:04:00;4.40;;;3.50;;
1977;SDS011;989;53.016;8.346;2023-03-13T07:06:26;6.63;;;3.17;;
1977;SDS011;989;53.016;8.346;2023-03-13T07:08:52;6.00;;;2.80;;
1977;SDS011;989;53.016;8.346;2023-03-13T07:11:18;12.03;;;4.10;;
1977;SDS011;989;53.016;8.346;2023-03-13T07:13:44;8.23;;;3.80;;
1977;SDS011;989;53.016;8.346;2023-03-13T07:16:11;6.37;;;3.83;;
1977;SDS011;989;53.016;8.346;2023-03-13T07:18:37;3.70;;;3.00;;
1977;SDS011;989;53.016;8.346;2023-03-13T07:21:05;5.93;;;4.53;;
1977;SDS011;989;53.016;8.346;2023-03-13T07:23:32;14.30;;;3.63;;
1977;SDS011;989;53.016;8.346;2023-03-13T07:26:05;4.83;;;3.57;;
1977;SDS011;989;53.016;8.346;2023-03-13T07:28:32;5.60;;;3.17;;
1977;SDS011;989;53.016;8.346;2023-03-13T07:33:30;9.40;;;4.30;;
1977;SDS011;989;53.016;8.346;2023-03-13T07:35:56;5.20;;;2.90;;
1977;SDS011;989;53.016;8.346;2023-03-13T07:38:22;12.07;;;4.67;;
1977;SDS011;989;53.016;8.346;2023-03-13T07:43:14;7.47;;;4.37;;
1977;SDS011;989;53.016;8.346;2023-03-13T07:45:48;5.07;;;2.53;;
1977;SDS011;989;53.016;8.346;2023-03-13T07:48:14;10.63;;;4.40;;
1977;SDS011;989;53.016;8.346;2023-03-13T07:50:40;7.83;;;4.57;;
1977;SDS011;989;53.016;8.346;2023-03-13T07:53:06;7.67;;;5.13;;
1977;SDS011;989;53.016;8.346;2023-03-13T07:55:32;9.93;;;5.10;;
1977;SDS011;989;53.016;8.346;2023-03-13T07:57:58;11.47;;;4.77;;
1977;SDS011;989;53.016;8.346;2023-03-13T08:00:28;9.90;;;5.33;;
1977;SDS011;989;53.016;8.346;2023-03-13T08:02:54;15.47;;;6.90;;
1977;SDS011;989;53.016;8.346;2023-03-13T08:05:20;7.77;;;4.47;;
1977;SDS011;989;53.016;8.346;2023-03-13T08:07:46;12.30;;;5.83;;
1977;SDS011;989;53.016;8.346;2023-03-13T08:10:12;16.60;;;8.80;;
1977;SDS011;989;53.016;8.346;2023-03-13T08:12:38;8.63;;;5.47;;
1977;SDS011;989;53.016;8.346;2023-03-13T08:15:04;12.93;;;6.80;;
1977;SDS011;989;53.016;8.346;2023-03-13T08:17:30;10.37;;;5.83;;
1977;SDS011;989;53.016;8.346;2023-03-13T08:19:56;13.83;;;6.33;;
1977;SDS011;989;53.016;8.346;2023-03-13T08:22:22;9.00;;;5.83;;
1977;SDS011;989;53.016;8.346;2023-03-13T08:24:48;7.33;;;3.00;;
1977;SDS011;989;53.016;8.346;2023-03-13T08:27:14;12.23;;;5.00;;
1977;SDS011;989;53.016;8.346;2023-03-13T08:29:40;10.60;;;6.40;;
1977;SDS011;989;53.016;8.346;2023-03-13T08:32:06;10.30;;;5.30;;
1977;SDS011;989;53.016;8.346;2023-03-13T08:34:32;9.53;;;4.03;;
1977;SDS011;989;53.016;8.346;2023-03-13T08:36:59;8.80;;;2.97;;
1977;SDS011;989;53.016;8.346;2023-03-13T08:39:25;5.93;;;3.50;;
1977;SDS011;989;53.016;8.346;2023-03-13T08:41:51;9.27;;;4.73;;
1977;SDS011;989;53.016;8.346;2023-03-13T08:44:17;8.97;;;4.13;;
1977;SDS011;989;53.016;8.346;2023-03-13T08:46:44;8.30;;;3.47;;
1977;SDS011;989;53.016;8.346;2023-03-13T08:49:10;9.53;;;4.50;;
1977;SDS011;989;53.016;8.346;2023-03-13T08:51:37;16.83;;;3.93;;
1977;SDS011;989;53.016;8.346;2023-03-13T08:54:04;6.90;;;3.80;;
1977;SDS011;989;53.016;8.346;2023-03-13T08:56:30;10.53;;;3.80;;
1977;SDS011;989;53.016;8.346;2023-03-13T08:58:58;12.10;;;3.93;;
1977;SDS011;989;53.016;8.346;2023-03-13T09:01:25;10.57;;;5.03;;
1977;SDS011;989;53.016;8.346;2023-03-13T09:03:51;9.40;;;3.20;;
1977;SDS011;989;53.016;8.346;2023-03-13T09:06:17;13.90;;;4.50;;
1977;SDS011;989;53.016;8.346;2023-03-13T09:08:44;4.23;;;2.90;;
1977;SDS011;989;53.016;8.346;2023-03-13T09:11:12;14.93;;;4.50;;
1977;SDS011;989;53.016;8.346;2023-03-13T09:13:39;7.53;;;2.80;;
1977;SDS011;989;53.016;8.346;2023-03-13T09:16:06;8.57;;;4.37;;
1977;SDS011;989;53.016;8.346;2023-03-13T09:18:33;14.13;;;5.13;;
1977;SDS011;989;53.016;8.346;2023-03-13T09:20:59;11.80;;;3.67;;
1977;SDS011;989;53.016;8.346;2023-03-13T09:23:26;7.33;;;2.37;;
1977;SDS011;989;53.016;8.346;2023-03-13T09:25:52;12.67;;;3.70;;
1977;SDS011;989;53.016;8.346;2023-03-13T09:28:19;8.20;;;3.70;;
1977;SDS011;989;53.016;8.346;2023-03-13T09:30:45;10.30;;;4.70;;
1977;SDS011;989;53.016;8.346;2023-03-13T09:33:11;6.50;;;2.70;;
1977;SDS011;989;53.016;8.346;2023-03-13T09:35:37;4.03;;;2.47;;
1977;SDS011;989;53.016;8.346;2023-03-13T09:38:05;11.93;;;4.50;;
1977;SDS011;989;53.016;8.346;2023-03-13T09:40:31;4.20;;;2.20;;
1977;SDS011;989;53.016;8.346;2023-03-13T09:43:01;5.40;;;2.80;;
1977;SDS011;989;53.016;8.346;2023-03-13T09:45:40;6.07;;;2.30;;
1977;SDS011;989;53.016;8.346;2023-03-13T09:48:23;5.87;;;2.70;;
1977;SDS011;989;53.016;8.346;2023-03-13T09:51:15;4.30;;;1.80;;
1977;SDS011;989;53.016;8.346;2023-03-13T09:53:43;10.73;;;2.60;;
1977;SDS011;989;53.016;8.346;2023-03-13T09:56:13;3.20;;;1.97;;
1977;SDS011;989;53.016;8.346;2023-03-13T09:58:46;3.73;;;2.10;;
1977;SDS011;989;53.016;8.346;2023-03-13T10:01:13;6.00;;;2.47;;
1977;SDS011;989;53.016;8.346;2023-03-13T10:03:42;7.37;;;2.90;;
1977;SDS011;989;53.016;8.346;2023-03-13T10:06:13;3.40;;;1.80;;
1977;SDS011;989;53.016;8.346;2023-03-13T10:08:41;6.87;;;2.33;;
1977;SDS011;989;53.016;8.346;2023-03-13T10:11:24;4.97;;;1.97;;
1977;SDS011;989;53.016;8.346;2023-03-13T10:14:02;8.37;;;2.07;;
1977;SDS011;989;53.016;8.346;2023-03-13T10:19:18;7.03;;;2.20;;
1977;SDS011;989;53.016;8.346;2023-03-13T10:21:48;5.50;;;2.00;;
1977;SDS011;989;53.016;8.346;2023-03-13T10:26:57;2.77;;;1.90;;
1977;SDS011;989;53.016;8.346;2023-03-13T10:29:25;5.73;;;2.67;;
1977;SDS011;989;53.016;8.346;2023-03-13T10:31:54;2.13;;;1.17;;
1977;SDS011;989;53.016;8.346;2023-03-13T10:34:22;3.10;;;1.70;;
1977;SDS011;989;53.016;8.346;2023-03-13T10:36:49;6.30;;;3.20;;
1977;SDS011;989;53.016;8.346;2023-03-13T10:39:18;4.37;;;3.13;;
1977;SDS011;989;53.016;8.346;2023-03-13T10:41:47;2.40;;;1.50;;
1977;SDS011;989;53.016;8.346;2023-03-13T10:44:17;6.90;;;2.50;;
1977;SDS011;989;53.016;8.346;2023-03-13T10:46:44;6.40;;;2.37;;
1977;SDS011;989;53.016;8.346;2023-03-13T10:51:47;8.53;;;2.80;;
1977;SDS011;989;53.016;8.346;2023-03-13T10:54:29;3.73;;;1.93;;
1977;SDS011;989;53.016;8.346;2023-03-13T10:59:42;7.90;;;2.20;;
1977;SDS011;989;53.016;8.346;2023-03-13T11:02:43;6.40;;;3.07;;
1977;SDS011;989;53.016;8.346;2023-03-13T11:05:02;4.30;;;1.93;;
1977;SDS011;989;53.016;8.346;2023-03-13T11:07:48;12.93;;;2.03;;
1977;SDS011;989;53.016;8.346;2023-03-13T11:12:53;3.60;;;1.87;;
1977;SDS011;989;53.016;8.346;2023-03-13T11:18:00;6.90;;;2.50;;
1977;SDS011;989;53.016;8.346;2023-03-13T11:20:32;3.23;;;1.67;;
1977;SDS011;989;53.016;8.346;2023-03-13T11:23:02;6.30;;;1.60;;
1977;SDS011;989;53.016;8.346;2023-03-13T11:25:30;3.57;;;1.40;;
1977;SDS011;989;53.016;8.346;2023-03-13T11:28:10;2.27;;;1.40;;
1977;SDS011;989;53.016;8.346;2023-03-13T11:35:50;10.83;;;1.47;;
1977;SDS011;989;53.016;8.346;2023-03-13T11:38:23;1.80;;;1.10;;
1977;SDS011;989;53.016;8.346;2023-03-13T11:40:58;2.77;;;1.03;;
1977;SDS011;989;53.016;8.346;2023-03-13T11:46:05;3.13;;;1.20;;
1977;SDS011;989;53.016;8.346;2023-03-13T11:48:41;3.40;;;1.40;;
1977;SDS011;989;53.016;8.346;2023-03-13T11:51:17;1.60;;;0.80;;
1977;SDS011;989;53.016;8.346;2023-03-13T11:56:26;1.60;;;0.80;;
1977;SDS011;989;53.016;8.346;2023-03-13T12:01:22;3.90;;;1.03;;
1977;SDS011;989;53.016;8.346;2023-03-13T12:06:28;1.50;;;0.93;;
1977;SDS011;989;53.016;8.346;2023-03-13T12:09:00;5.03;;;3.00;;
1977;SDS011;989;53.016;8.346;2023-03-13T12:11:30;2.80;;;1.17;;
1977;SDS011;989;53.016;8.346;2023-03-13T12:17:03;3.97;;;1.33;;
1977;SDS011;989;53.016;8.346;2023-03-13T12:19:50;2.43;;;1.20;;
1977;SDS011;989;53.016;8.346;2023-03-13T12:22:19;4.03;;;1.50;;
1977;SDS011;989;53.016;8.346;2023-03-13T12:24:52;5.00;;;1.53;;
1977;SDS011;989;53.016;8.346;2023-03-13T12:27:22;4.43;;;1.00;;
1977;SDS011;989;53.016;8.346;2023-03-13T12:32:36;3.90;;;2.00;;
1977;SDS011;989;53.016;8.346;2023-03-13T12:35:07;3.20;;;1.43;;
1977;SDS011;989;53.016;8.346;2023-03-13T12:43:02;6.13;;;1.67;;
1977;SDS011;989;53.016;8.346;2023-03-13T12:45:29;4.20;;;1.60;;
1977;SDS011;989;53.016;8.346;2023-03-13T12:50:31;5.13;;;1.60;;
1977;SDS011;989;53.016;8.346;2023-03-13T12:53:08;2.37;;;1.27;;
1977;SDS011;989;53.016;8.346;2023-03-13T12:55:42;6.27;;;1.70;;
1977;SDS011;989;53.016;8.346;2023-03-13T12:58:57;2.60;;;1.37;;
1977;SDS011;989;53.016;8.346;2023-03-13T13:01:01;3.03;;;1.57;;
1977;SDS011;989;53.016;8.346;2023-03-13T13:03:31;7.03;;;2.10;;
1977;SDS011;989;53.016;8.346;2023-03-13T13:08:36;2.50;;;1.23;;
1977;SDS011;989;53.016;8.346;2023-03-13T13:13:47;3.47;;;1.40;;
1977;SDS011;989;53.016;8.346;2023-03-13T13:16:15;3.70;;;1.33;;
1977;SDS011;989;53.016;8.346;2023-03-13T13:18:42;3.20;;;1.27;;
1977;SDS011;989;53.016;8.346;2023-03-13T13:23:40;4.97;;;1.87;;
1977;SDS011;989;53.016;8.346;2023-03-13T13:28:55;8.07;;;2.03;;
1977;SDS011;989;53.016;8.346;2023-03-13T13:34:07;3.93;;;1.70;;
1977;SDS011;989;53.016;8.346;2023-03-13T13:36:39;3.23;;;1.43;;
1977;SDS011;989;53.016;8.346;2023-03-13T13:39:20;6.37;;;1.60;;
1977;SDS011;989;53.016;8.346;2023-03-13T13:41:47;4.80;;;1.40;;
1977;SDS011;989;53.016;8.346;2023-03-13T13:44:13;3.93;;;1.63;;
1977;SDS011;989;53.016;8.346;2023-03-13T13:46:44;3.67;;;1.77;;
1977;SDS011;989;53.016;8.346;2023-03-13T13:49:20;2.83;;;1.30;;
1977;SDS011;989;53.016;8.346;2023-03-13T13:59:39;2.97;;;1.30;;
1977;SDS011;989;53.016;8.346;2023-03-13T14:07:00;7.17;;;1.40;;
1977;SDS011;989;53.016;8.346;2023-03-13T14:15:35;4.77;;;1.77;;
1977;SDS011;989;53.016;8.346;2023-03-13T14:17:40;4.53;;;1.70;;
1977;SDS011;989;53.016;8.346;2023-03-13T14:20:16;2.47;;;1.50;;
1977;SDS011;989;53.016;8.346;2023-03-13T14:22:43;5.10;;;1.63;;
1977;SDS011;989;53.016;8.346;2023-03-13T14:25:10;2.80;;;1.20;;
1977;SDS011;989;53.016;8.346;2023-03-13T14:27:41;9.03;;;1.60;;
1977;SDS011;989;53.016;8.346;2023-03-13T14:30:08;5.90;;;1.63;;
1977;SDS011;989;53.016;8.346;2023-03-13T14:32:34;4.30;;;1.30;;
1977;SDS011;989;53.016;8.346;2023-03-13T14:35:00;3.63;;;1.63;;
1977;SDS011;989;53.016;8.346;2023-03-13T14:40:05;5.97;;;1.83;;
1977;SDS011;989;53.016;8.346;2023-03-13T14:42:39;3.53;;;1.50;;
1977;SDS011;989;53.016;8.346;2023-03-13T14:45:14;3.17;;;1.33;;
1977;SDS011;989;53.016;8.346;2023-03-13T14:47:40;2.47;;;1.10;;
1977;SDS011;989;53.016;8.346;2023-03-13T14:50:10;4.63;;;1.80;;
1977;SDS011;989;53.016;8.346;2023-03-13T14:52:42;2.37;;;1.20;;
1977;SDS011;989;53.016;8.346;2023-03-13T14:58:00;2.53;;;1.30;;
1977;SDS011;989;53.016;8.346;2023-03-13T15:00:38;8.83;;;1.57;;
1977;SDS011;989;53.016;8.346;2023-03-13T15:05:44;2.60;;;1.20;;
1977;SDS011;989;53.016;8.346;2023-03-13T15:08:21;5.63;;;1.53;;
1977;SDS011;989;53.016;8.346;2023-03-13T15:10:47;4.57;;;1.40;;
1977;SDS011;989;53.016;8.346;2023-03-13T15:15:58;3.67;;;0.90;;
1977;SDS011;989;53.016;8.346;2023-03-13T15:18:25;4.10;;;1.50;;
1977;SDS011;989;53.016;8.346;2023-03-13T15:20:53;2.93;;;1.70;;
1977;SDS011;989;53.016;8.346;2023-03-13T15:23:19;3.00;;;1.57;;
1977;SDS011;989;53.016;8.346;2023-03-13T15:25:45;4.47;;;1.47;;
1977;SDS011;989;53.016;8.346;2023-03-13T15:28:18;4.87;;;1.40;;
1977;SDS011;989;53.016;8.346;2023-03-13T15:30:45;4.43;;;1.50;;
1977;SDS011;989;53.016;8.346;2023-03-13T15:33:15;1.93;;;1.30;;
1977;SDS011;989;53.016;8.346;2023-03-13T15:35:41;3.53;;;1.37;;
1977;SDS011;989;53.016;8.346;2023-03-13T15:38:12;2.70;;;1.33;;
1977;SDS011;989;53.016;8.346;2023-03-13T15:40:38;2.77;;;1.30;;
1977;SDS011;989;53.016;8.346;2023-03-13T15:43:04;2.10;;;1.20;;
1977;SDS011;989;53.016;8.346;2023-03-13T15:45:30;6.27;;;1.80;;
1977;SDS011;989;53.016;8.346;2023-03-13T15:47:56;5.00;;;1.83;;
1977;SDS011;989;53.016;8.346;2023-03-13T15:50:23;3.33;;;1.30;;
1977;SDS011;989;53.016;8.346;2023-03-13T15:52:54;5.00;;;1.40;;
1977;SDS011;989;53.016;8.346;2023-03-13T15:55:20;14.53;;;1.57;;
1977;SDS011;989;53.016;8.346;2023-03-13T15:57:48;2.60;;;1.00;;
1977;SDS011;989;53.016;8.346;2023-03-13T16:00:18;6.07;;;1.60;;
1977;SDS011;989;53.016;8.346;2023-03-13T16:02:45;4.90;;;1.47;;
1977;SDS011;989;53.016;8.346;2023-03-13T16:05:11;6.73;;;1.83;;
1977;SDS011;989;53.016;8.346;2023-03-13T16:07:37;13.83;;;1.60;;
1977;SDS011;989;53.016;8.346;2023-03-13T16:10:03;2.53;;;1.27;;
1977;SDS011;989;53.016;8.346;2023-03-13T16:12:29;4.47;;;1.37;;
1977;SDS011;989;53.016;8.346;2023-03-13T16:14:55;6.07;;;1.13;;
1977;SDS011;989;53.016;8.346;2023-03-13T16:17:21;6.77;;;1.83;;
1977;SDS011;989;53.016;8.346;2023-03-13T16:19:49;2.43;;;1.10;;
1977;SDS011;989;53.016;8.346;2023-03-13T16:22:15;5.43;;;1.53;;
1977;SDS011;989;53.016;8.346;2023-03-13T16:24:41;4.10;;;1.53;;
1977;SDS011;989;53.016;8.346;2023-03-13T16:27:09;9.50;;;2.03;;
1977;SDS011;989;53.016;8.346;2023-03-13T16:29:36;3.27;;;0.90;;
1977;SDS011;989;53.016;8.346;2023-03-13T16:32:02;4.50;;;1.30;;
1977;SDS011;989;53.016;8.346;2023-03-13T16:34:28;2.00;;;0.93;;
1977;SDS011;989;53.016;8.346;2023-03-13T16:36:54;4.53;;;1.03;;
1977;SDS011;989;53.016;8.346;2023-03-13T16:39:20;11.47;;;1.50;;
1977;SDS011;989;53.016;8.346;2023-03-13T16:41:46;3.40;;;1.30;;
1977;SDS011;989;53.016;8.346;2023-03-13T16:44:12;6.10;;;1.47;;
1977;SDS011;989;53.016;8.346;2023-03-13T16:46:39;2.70;;;1.07;;
1977;SDS011;989;53.016;8.346;2023-03-13T16:49:06;6.80;;;1.60;;
1977;SDS011;989;53.016;8.346;2023-03-13T16:51:32;5.40;;;1.57;;
1977;SDS011;989;53.016;8.346;2023-03-13T16:53:58;9.60;;;1.30;;
1977;SDS011;989;53.016;8.346;2023-03-13T16:56:29;5.23;;;1.80;;
1977;SDS011;989;53.016;8.346;2023-03-13T16:58:55;7.90;;;1.90;;
1977;SDS011;989;53.016;8.346;2023-03-13T17:01:22;3.40;;;1.47;;
1977;SDS011;989;53.016;8.346;2023-03-13T17:03:53;4.00;;;1.00;;
1977;SDS011;989;53.016;8.346;2023-03-13T17:06:23;1.67;;;0.70;;